createdAt,value
2022-11-29T00:02:09.414Z,19.00
2022-11-29T00:04:37.589Z,20.77
2022-11-29T00:07:05.874Z,18.37
2022-11-29T00:09:32.761Z,20.33
2022-11-29T00:12:14.440Z,21.83
2022-11-29T00:14:42.075Z,22.03
2022-11-29T00:17:09.450Z,21.20
2022-11-29T00:19:37.499Z,20.63
2022-11-29T00:22:05.834Z,19.60
2022-11-29T00:24:32.978Z,20.33
2022-11-29T00:27:01.230Z,20.00
2022-11-29T00:29:29.961Z,18.53
2022-11-29T00:31:56.986Z,19.10
2022-11-29T00:34:23.977Z,19.37
2022-11-29T00:36:50.931Z,19.90
2022-11-29T00:39:19.312Z,17.63
2022-11-29T00:41:46.348Z,19.20
2022-11-29T00:44:19.693Z,22.67
2022-11-29T00:49:14.258Z,17.83
2022-11-29T00:51:41.208Z,21.33
2022-11-29T00:54:08.148Z,16.40
2022-11-29T00:56:36.459Z,19.70
2022-11-29T00:59:03.373Z,19.20
2022-11-29T01:01:30.316Z,20.53
2022-11-29T01:03:57.290Z,20.60
2022-11-29T01:06:24.202Z,22.33
2022-11-29T01:08:51.416Z,19.63
2022-11-29T01:11:20.877Z,20.73
2022-11-29T01:13:50.361Z,19.47
2022-11-29T01:16:17.805Z,18.97
2022-11-29T01:18:45.131Z,18.60
2022-11-29T01:21:14.380Z,17.93
2022-11-29T01:23:42.444Z,20.07
2022-11-29T01:26:11.879Z,18.63
2022-11-29T01:28:40.270Z,18.07
2022-11-29T01:31:09.479Z,19.13
2022-11-29T01:33:37.180Z,17.60
2022-11-29T01:36:05.846Z,14.73
2022-11-29T01:38:32.971Z,18.47
2022-11-29T01:41:02.116Z,17.73
2022-11-29T01:43:29.382Z,16.43
2022-11-29T01:45:56.648Z,15.20
2022-11-29T01:48:28.623Z,15.60
2022-11-29T01:51:00.271Z,14.10
2022-11-29T01:53:28.488Z,14.63
2022-11-29T01:56:01.364Z,15.53
2022-11-29T01:58:29.216Z,14.27
2022-11-29T02:00:57.155Z,15.77
2022-11-29T02:03:25.538Z,17.70
2022-11-29T02:05:53.821Z,16.00
2022-11-29T02:08:26.226Z,18.23
2022-11-29T02:11:22.454Z,20.77
2022-11-29T02:14:02.009Z,14.77
2022-11-29T02:16:37.557Z,19.07
2022-11-29T02:19:21.606Z,17.20
2022-11-29T02:21:53.258Z,18.25
2022-11-29T02:24:57.933Z,19.10
2022-11-29T02:27:58.001Z,19.00
2022-11-29T02:31:02.012Z,19.17
2022-11-29T02:33:59.460Z,17.15
2022-11-29T02:36:57.331Z,16.83
2022-11-29T02:39:53.287Z,15.30
2022-11-29T02:42:56.526Z,16.93
2022-11-29T02:45:38.580Z,17.13
2022-11-29T02:48:29.811Z,16.87
2022-11-29T02:51:05.917Z,15.17
2022-11-29T02:53:38.677Z,15.37
2022-11-29T02:56:13.363Z,16.43
2022-11-29T02:58:47.674Z,18.00
2022-11-29T03:01:20.292Z,17.57
2022-11-29T03:03:55.407Z,17.17
2022-11-29T03:06:38.684Z,17.40
2022-11-29T03:09:12.301Z,18.40
2022-11-29T03:11:48.013Z,17.48
2022-11-29T03:14:23.533Z,18.13
2022-11-29T03:17:00.801Z,18.67
2022-11-29T03:19:47.417Z,17.87
2022-11-29T03:22:30.035Z,16.80
2022-11-29T03:25:03.160Z,16.30
2022-11-29T03:27:38.625Z,16.17
2022-11-29T03:30:08.759Z,17.93
2022-11-29T03:32:45.591Z,17.93
2022-11-29T03:35:18.839Z,18.13
2022-11-29T03:37:55.381Z,19.15
2022-11-29T03:40:28.137Z,18.43
2022-11-29T03:43:00.823Z,18.47
2022-11-29T03:45:32.896Z,16.43
2022-11-29T03:48:09.939Z,17.67
2022-11-29T03:50:41.504Z,20.00
2022-11-29T03:53:17.964Z,19.60
2022-11-29T03:56:42.566Z,19.77
2022-11-29T03:59:22.849Z,18.53
2022-11-29T04:02:22.464Z,17.77
2022-11-29T04:05:19.788Z,15.90
2022-11-29T04:08:08.544Z,19.30
2022-11-29T04:11:05.624Z,18.30
2022-11-29T04:14:14.171Z,17.73
2022-11-29T04:17:22.205Z,17.80
2022-11-29T04:20:36.294Z,17.50
2022-11-29T04:23:41.725Z,16.37
2022-11-29T04:30:10.037Z,16.80
2022-11-29T04:33:29.598Z,20.00
2022-11-29T04:36:28.688Z,18.23
2022-11-29T04:39:26.279Z,21.17
2022-11-29T04:42:39.447Z,16.07
2022-11-29T04:45:54.030Z,18.77
2022-11-29T04:48:54.779Z,16.80
2022-11-29T04:52:02.964Z,20.83
2022-11-29T04:54:40.269Z,24.93
2022-11-29T04:57:23.540Z,42.50
2022-11-29T05:00:12.012Z,26.73
2022-11-29T05:02:49.044Z,32.70
2022-11-29T05:05:32.538Z,21.20
2022-11-29T05:08:33.429Z,18.83
2022-11-29T05:11:50.318Z,17.87
2022-11-29T05:14:28.648Z,16.93
2022-11-29T05:17:24.541Z,21.23
2022-11-29T05:20:33.680Z,23.73
2022-11-29T05:23:25.844Z,23.97
2022-11-29T05:26:05.910Z,38.50
2022-11-29T05:28:56.347Z,23.50
2022-11-29T05:31:47.189Z,18.97
2022-11-29T05:34:42.559Z,25.23
2022-11-29T05:37:25.822Z,25.47
2022-11-29T05:40:18.887Z,24.73
2022-11-29T05:43:04.425Z,23.53
2022-11-29T05:45:37.046Z,20.77
2022-11-29T05:48:13.678Z,21.17
2022-11-29T05:50:48.046Z,18.80
2022-11-29T05:53:24.908Z,18.73
2022-11-29T05:56:03.294Z,17.83
2022-11-29T05:58:40.771Z,17.20
2022-11-29T06:01:18.460Z,19.07
2022-11-29T06:03:55.980Z,18.03
2022-11-29T06:06:33.515Z,19.70
2022-11-29T06:09:33.969Z,17.77
2022-11-29T06:12:46.222Z,15.97
2022-11-29T06:16:17.331Z,16.93
2022-11-29T06:23:59.479Z,16.03
2022-11-29T06:31:20.369Z,13.63
2022-11-29T10:25:08.664Z,17.33
2022-11-29T10:27:39.914Z,22.03
2022-11-29T10:30:13.598Z,22.50
2022-11-29T10:32:41.275Z,22.75
2022-11-29T10:35:13.541Z,23.50
2022-11-29T10:40:59.327Z,25.70
2022-11-29T10:43:27.768Z,25.73
2022-11-29T10:45:56.280Z,22.67
2022-11-29T10:48:28.719Z,22.70
2022-11-29T10:56:30.431Z,19.93
2022-11-29T10:59:03.293Z,22.40
2022-11-29T11:01:31.496Z,34.13
2022-11-29T11:04:00.735Z,22.95
2022-11-29T11:06:41.541Z,22.30
2022-11-29T11:09:20.235Z,21.50
2022-11-29T11:11:52.879Z,19.13
2022-11-29T11:14:23.328Z,23.63
2022-11-29T11:16:50.776Z,18.50
2022-11-29T11:19:35.500Z,17.63
2022-11-29T11:22:04.139Z,16.23
2022-11-29T11:24:33.304Z,17.67
2022-11-29T11:27:01.491Z,23.57
2022-11-29T11:29:37.817Z,19.90
2022-11-29T11:32:07.617Z,17.00
2022-11-29T11:34:36.613Z,17.40
2022-11-29T11:37:21.185Z,18.80
2022-11-29T11:39:49.891Z,22.13
2022-11-29T11:42:37.435Z,18.27
2022-11-29T11:45:23.119Z,19.77
2022-11-29T11:47:52.392Z,25.97
2022-11-29T11:50:28.196Z,19.13
2022-11-29T11:52:57.546Z,17.03
2022-11-29T11:55:33.706Z,17.50
2022-11-29T11:58:13.822Z,16.73
2022-11-29T12:01:03.397Z,16.23
2022-11-29T12:03:45.136Z,16.37
2022-11-29T12:06:26.123Z,15.70
2022-11-29T12:08:57.659Z,14.30
2022-11-29T12:11:26.463Z,14.63
2022-11-29T12:13:59.213Z,17.23
2022-11-29T12:16:34.624Z,15.60
2022-11-29T12:19:07.340Z,16.20
2022-11-29T12:21:40.489Z,15.32
2022-11-29T12:24:20.483Z,17.10
2022-11-29T12:27:03.143Z,13.80
2022-11-29T12:29:34.330Z,16.93
2022-11-29T12:32:14.246Z,17.07
2022-11-29T12:34:54.371Z,16.20
2022-11-29T12:37:29.071Z,15.63
2022-11-29T12:40:02.293Z,17.67
2022-11-29T12:42:40.997Z,17.80
2022-11-29T12:45:29.820Z,16.53
2022-11-29T12:48:10.192Z,16.60
2022-11-29T12:50:45.436Z,17.50
2022-11-29T12:53:27.546Z,17.90
2022-11-29T12:56:03.663Z,16.85
2022-11-29T12:58:45.470Z,17.77
2022-11-29T13:01:19.602Z,19.00
2022-11-29T13:03:58.770Z,19.20
2022-11-29T13:06:33.089Z,19.08
2022-11-29T13:09:17.754Z,19.13
2022-11-29T13:11:51.328Z,19.60
2022-11-29T13:14:43.719Z,17.05
2022-11-29T13:17:26.377Z,16.90
2022-11-29T13:19:58.545Z,17.83
2022-11-29T13:22:30.789Z,17.55
2022-11-29T13:25:01.505Z,17.77
2022-11-29T13:27:33.204Z,17.33
2022-11-29T13:30:01.467Z,18.63
2022-11-29T13:32:36.215Z,19.50
2022-11-29T13:35:09.357Z,18.60
2022-11-29T13:37:42.161Z,20.25
2022-11-29T13:40:23.658Z,21.97
2022-11-29T13:42:58.968Z,22.60
2022-11-29T13:45:34.363Z,22.50
2022-11-29T13:48:24.915Z,24.50
2022-11-29T13:50:57.043Z,22.23
2022-11-29T13:53:26.198Z,22.50
2022-11-29T13:56:02.769Z,23.87
2022-11-29T13:58:37.331Z,21.95
2022-11-29T14:01:08.502Z,21.63
2022-11-29T14:03:38.887Z,20.73
2022-11-29T14:06:13.996Z,20.92
2022-11-29T14:09:17.431Z,19.83
2022-11-29T14:11:38.099Z,19.40
2022-11-29T14:14:08.641Z,16.87
2022-11-29T14:16:39.261Z,15.40
2022-11-29T14:19:26.582Z,14.17
2022-11-29T14:22:22.139Z,15.00
2022-11-29T14:25:49.744Z,15.18
2022-11-29T14:28:31.600Z,13.45
2022-11-29T14:31:01.588Z,14.23
2022-11-29T14:34:00.535Z,14.93
2022-11-29T14:36:51.664Z,12.48
2022-11-29T14:39:31.735Z,14.57
2022-11-29T14:42:14.636Z,13.23
2022-11-29T14:44:48.444Z,15.33
2022-11-29T14:47:24.320Z,15.65
2022-11-29T14:49:54.084Z,14.10
2022-11-29T14:52:29.300Z,14.70
2022-11-29T14:55:05.420Z,14.25
2022-11-29T14:58:15.904Z,13.90
2022-11-29T15:01:08.181Z,15.90
2022-11-29T15:03:43.918Z,15.80
2022-11-29T15:06:15.649Z,12.63
2022-11-29T15:08:51.906Z,13.43
2022-11-29T15:11:30.328Z,14.37
2022-11-29T15:14:04.479Z,14.17
2022-11-29T15:16:54.051Z,15.03
2022-11-29T15:19:42.569Z,15.90
2022-11-29T15:22:16.079Z,14.53
2022-11-29T15:24:54.637Z,15.00
2022-11-29T15:27:23.263Z,15.23
2022-11-29T15:29:50.548Z,13.77
2022-11-29T15:32:23.033Z,15.23
2022-11-29T15:34:51.919Z,15.50
2022-11-29T15:37:23.798Z,15.60
2022-11-29T15:40:02.490Z,16.83
2022-11-29T15:42:38.822Z,16.67
2022-11-29T15:45:30.336Z,18.40
2022-11-29T15:48:12.667Z,19.40
2022-11-29T15:50:42.872Z,18.83
2022-11-29T15:53:16.437Z,17.63
2022-11-29T15:55:44.058Z,36.58
2022-11-29T15:58:14.071Z,21.90
2022-11-29T16:00:42.387Z,24.07
2022-11-29T16:03:19.789Z,31.67
2022-11-29T16:05:52.524Z,34.57
2022-11-29T16:08:21.220Z,26.90
2022-11-29T16:10:52.971Z,21.37
2022-11-29T16:13:39.861Z,19.73
2022-11-29T16:16:11.882Z,18.73
2022-11-29T16:18:41.260Z,18.43
2022-11-29T16:21:22.811Z,20.87
2022-11-29T16:23:49.711Z,16.27
2022-11-29T16:26:19.519Z,18.40
2022-11-29T16:28:49.861Z,16.70
2022-11-29T16:31:18.275Z,14.93
2022-11-29T16:33:47.539Z,16.73
2022-11-29T16:36:17.555Z,17.20
2022-11-29T17:53:47.611Z,13.67
2022-11-29T17:56:18.061Z,13.53
2022-11-29T18:04:41.407Z,21.37
2022-11-29T18:07:08.197Z,17.25
2022-11-29T18:10:15.666Z,13.83
2022-11-29T18:20:59.348Z,17.43
2022-11-29T18:23:30.097Z,15.73
2022-11-29T18:26:00.098Z,14.53
2022-11-29T18:28:27.322Z,12.67
2022-11-29T18:30:54.674Z,11.63
2022-11-29T18:33:21.607Z,12.17
2022-11-29T18:35:48.619Z,11.80
2022-11-29T18:38:16.551Z,12.33
2022-11-29T18:40:47.286Z,11.83
2022-11-29T18:43:17.221Z,11.27
2022-11-29T18:45:44.074Z,11.10
2022-11-29T18:48:10.980Z,10.37
2022-11-29T18:50:37.890Z,11.37
2022-11-29T18:53:04.747Z,11.53
2022-11-29T18:55:31.553Z,11.60
2022-11-29T18:57:58.451Z,11.10
2022-11-29T19:00:26.755Z,12.47
2022-11-29T19:02:54.080Z,10.70
2022-11-29T19:05:20.948Z,11.17
2022-11-29T19:07:48.034Z,11.27
2022-11-29T19:10:15.058Z,9.57
2022-11-29T19:12:41.808Z,12.43
2022-11-29T19:15:09.802Z,11.03
2022-11-29T19:17:42.968Z,13.87
2022-11-29T19:20:11.725Z,12.40
2022-11-29T19:22:38.583Z,14.73
2022-11-29T19:25:06.357Z,13.87
2022-11-29T19:27:33.309Z,17.87
2022-11-29T19:30:00.134Z,15.17
2022-11-29T19:32:26.946Z,16.60
2022-11-29T19:34:56.694Z,15.77
2022-11-29T19:37:23.530Z,18.33
2022-11-29T19:39:50.386Z,15.80
2022-11-29T19:42:17.293Z,14.90
2022-11-29T19:45:15.346Z,14.00
2022-11-29T19:47:31.064Z,14.43
2022-11-29T19:50:02.319Z,16.20
2022-11-29T19:52:29.735Z,18.90
2022-11-29T19:54:57.556Z,15.63
2022-11-29T19:57:24.354Z,18.00
2022-11-29T19:59:51.150Z,14.63
2022-11-29T20:02:18.131Z,13.50
2022-11-29T20:04:45.718Z,13.53
2022-11-29T20:07:13.886Z,16.20
2022-11-29T20:09:40.691Z,12.87
2022-11-29T20:12:07.590Z,11.67
2022-11-29T20:14:34.411Z,10.17
2022-11-29T20:17:01.230Z,10.47
2022-11-29T20:19:28.066Z,11.17
2022-11-29T20:21:55.011Z,10.97
2022-11-29T20:24:23.279Z,9.77
2022-11-29T20:26:50.154Z,11.37
2022-11-29T20:29:17.306Z,11.73
2022-11-29T20:31:50.038Z,11.50
2022-11-29T20:34:18.539Z,13.45
2022-11-29T20:37:00.762Z,13.40
2022-11-29T20:39:38.076Z,13.60
2022-11-29T20:42:52.874Z,14.23
2022-11-29T20:45:20.223Z,12.07
2022-11-29T20:47:53.307Z,14.47
2022-11-29T20:50:23.697Z,14.38
2022-11-29T20:53:01.929Z,13.90
2022-11-29T20:55:30.165Z,12.77
2022-11-29T20:57:57.012Z,12.73
2022-11-29T21:00:24.442Z,12.37
2022-11-29T21:02:51.248Z,12.33
2022-11-29T21:05:18.494Z,13.03
2022-11-29T21:07:46.694Z,11.53
2022-11-29T21:10:15.509Z,11.10
2022-11-29T21:12:45.740Z,10.97
2022-11-29T21:15:13.819Z,11.73
2022-11-29T21:17:41.432Z,11.53
2022-11-29T21:20:09.662Z,11.87
2022-11-29T21:22:46.976Z,11.43
2022-11-29T21:25:21.487Z,12.10
2022-11-29T21:27:52.345Z,11.87
2022-11-29T21:30:22.085Z,12.10
2022-11-29T21:32:49.632Z,13.93
2022-11-29T21:35:17.365Z,13.90
2022-11-29T21:37:44.811Z,19.33
2022-11-29T21:40:14.147Z,15.07
2022-11-29T21:42:41.230Z,15.57
2022-11-29T21:45:15.207Z,15.87
2022-11-29T21:47:43.016Z,14.77
2022-11-29T21:50:11.044Z,14.90
2022-11-29T21:52:38.047Z,13.90
2022-11-29T21:55:05.805Z,13.00
2022-11-29T21:57:32.602Z,11.90
2022-11-29T21:59:59.432Z,13.63
2022-11-29T22:02:27.664Z,13.23
2022-11-29T22:04:54.591Z,13.67
2022-11-29T22:07:22.142Z,12.83
2022-11-29T22:09:49.022Z,13.13
2022-11-29T22:12:33.258Z,14.07
2022-11-29T22:15:01.346Z,12.77
2022-11-29T22:17:29.585Z,13.43
2022-11-29T22:19:56.386Z,13.87
2022-11-29T22:22:27.070Z,13.83
2022-11-29T22:24:54.874Z,13.07
2022-11-29T22:27:21.667Z,14.30
2022-11-29T22:29:48.920Z,13.33
2022-11-29T22:32:15.790Z,14.77
2022-11-29T22:34:44.200Z,14.73
2022-11-29T22:37:12.459Z,13.70
2022-11-29T22:39:39.298Z,14.53
2022-11-29T22:42:06.104Z,14.40
2022-11-29T22:44:32.911Z,13.53
2022-11-29T22:46:59.740Z,15.43
2022-11-29T22:49:26.761Z,14.20
2022-11-29T22:51:54.975Z,14.93
2022-11-29T22:54:21.816Z,13.97
2022-11-29T22:56:48.800Z,15.83
2022-11-29T22:59:15.705Z,14.67
2022-11-29T23:01:42.933Z,15.27
2022-11-29T23:04:11.737Z,16.60
2022-11-29T23:06:40.828Z,16.97
2022-11-29T23:09:15.179Z,16.70
2022-11-29T23:11:42.590Z,16.50
2022-11-29T23:14:09.834Z,16.43
2022-11-29T23:16:36.876Z,16.40
2022-11-29T23:19:04.028Z,16.53
2022-11-29T23:21:32.591Z,17.43
2022-11-29T23:24:00.962Z,16.80
2022-11-29T23:26:31.264Z,16.30
2022-11-29T23:28:58.772Z,16.33
2022-11-29T23:31:25.829Z,16.73
2022-11-29T23:33:52.836Z,16.57
2022-11-29T23:36:19.596Z,16.17
2022-11-29T23:38:46.679Z,16.03
2022-11-29T23:41:13.678Z,17.30
2022-11-29T23:43:42.230Z,14.20
2022-11-29T23:46:10.737Z,17.70
2022-11-29T23:48:37.835Z,15.77
2022-11-29T23:51:04.985Z,16.97
2022-11-29T23:53:32.567Z,15.93
2022-11-29T23:56:00.773Z,16.00
2022-11-29T23:58:29.312Z,17.60
